createdAt,value
2019-03-20T00:01:59.445Z,3.40
2019-03-20T00:07:04.042Z,3.40
2019-03-20T00:12:08.120Z,3.40
2019-03-20T00:17:11.758Z,3.40
2019-03-20T00:22:15.432Z,3.40
2019-03-20T00:27:18.761Z,3.40
2019-03-20T00:32:23.764Z,3.40
2019-03-20T00:37:27.168Z,3.40
2019-03-20T00:42:30.562Z,3.40
2019-03-20T00:47:33.976Z,3.30
2019-03-20T00:52:38.142Z,3.20
2019-03-20T00:57:41.622Z,3.20
2019-03-20T01:02:45.017Z,3.10
2019-03-20T01:07:49.027Z,3.20
2019-03-20T01:12:53.317Z,3.10
2019-03-20T01:17:59.073Z,3.10
2019-03-20T01:23:04.069Z,3.00
2019-03-20T01:28:07.445Z,2.90
2019-03-20T01:33:12.166Z,2.90
2019-03-20T01:38:15.920Z,2.80
2019-03-20T01:43:19.301Z,2.80
2019-03-20T01:48:22.721Z,2.70
2019-03-20T01:53:27.919Z,2.70
2019-03-20T01:58:34.782Z,2.70
2019-03-20T02:03:38.093Z,2.70
2019-03-20T02:08:42.543Z,2.70
2019-03-20T02:13:45.969Z,2.60
2019-03-20T02:18:49.308Z,2.60
2019-03-20T02:23:52.807Z,2.50
2019-03-20T02:28:57.547Z,2.50
2019-03-20T02:34:01.832Z,2.50
2019-03-20T02:39:07.438Z,2.40
2019-03-20T02:44:12.294Z,2.40
2019-03-20T02:49:17.758Z,2.30
2019-03-20T02:54:22.330Z,2.30
2019-03-20T02:59:25.788Z,2.30
2019-03-20T03:04:30.876Z,2.30
2019-03-20T03:09:34.199Z,2.30
2019-03-20T03:14:37.524Z,2.20
2019-03-20T03:19:41.428Z,2.30
2019-03-20T03:24:46.137Z,2.30
2019-03-20T03:29:49.660Z,2.30
2019-03-20T03:34:53.058Z,2.30
2019-03-20T03:39:56.464Z,2.30
2019-03-20T03:45:00.583Z,2.30
2019-03-20T03:50:05.674Z,2.20
2019-03-20T03:55:11.403Z,2.20
2019-03-20T04:00:21.800Z,2.20
2019-03-20T04:05:30.567Z,2.20
2019-03-20T04:10:34.432Z,2.10
2019-03-20T04:15:45.820Z,2.10
2019-03-20T04:20:49.551Z,2.10
2019-03-20T04:25:54.350Z,2.00
2019-03-20T04:30:58.576Z,1.90
2019-03-20T04:36:02.038Z,1.90
2019-03-20T04:41:05.494Z,1.90
2019-03-20T04:46:08.812Z,1.80
2019-03-20T04:51:12.143Z,1.80
2019-03-20T04:56:17.454Z,1.80
2019-03-20T05:01:20.945Z,1.80
2019-03-20T05:06:25.014Z,1.80
2019-03-20T05:11:29.513Z,1.80
2019-03-20T05:16:34.715Z,1.80
2019-03-20T05:21:38.180Z,1.90
2019-03-20T05:26:41.583Z,2.00
2019-03-20T05:31:46.373Z,2.10
2019-03-20T05:36:50.518Z,2.20
2019-03-20T05:41:53.830Z,2.30
2019-03-20T05:46:57.254Z,2.40
2019-03-20T05:52:01.147Z,2.60
2019-03-20T05:57:07.756Z,2.70
2019-03-20T06:02:15.863Z,2.80
2019-03-20T06:07:21.719Z,3.00
2019-03-20T06:12:31.918Z,3.10
2019-03-20T06:17:37.386Z,3.30
2019-03-20T06:22:52.736Z,3.50
2019-03-20T06:27:56.166Z,3.70
2019-03-20T06:33:01.182Z,4.70
2019-03-20T06:38:04.656Z,5.20
2019-03-20T06:43:08.693Z,5.30
2019-03-20T06:48:14.152Z,5.40
2019-03-20T06:53:21.170Z,5.30
2019-03-20T06:58:24.855Z,5.30
2019-03-20T07:03:45.500Z,5.40
2019-03-20T07:08:58.839Z,6.20
2019-03-20T07:14:04.441Z,6.20
2019-03-20T07:19:08.904Z,6.10
2019-03-20T07:24:12.355Z,6.20
2019-03-20T07:29:24.594Z,6.30
2019-03-20T07:34:23.327Z,6.30
2019-03-20T07:39:28.444Z,6.40
2019-03-20T07:44:31.863Z,6.50
2019-03-20T07:49:35.402Z,6.60
2019-03-20T07:54:38.767Z,6.80
2019-03-20T07:59:42.197Z,7.00
2019-03-20T08:04:45.621Z,7.10
2019-03-20T08:09:49.150Z,7.20
2019-03-20T08:14:53.203Z,7.40
2019-03-20T08:19:56.503Z,7.60
2019-03-20T08:24:59.818Z,7.70
2019-03-20T08:30:05.057Z,7.90
2019-03-20T08:35:10.513Z,8.40
2019-03-20T08:40:18.810Z,9.10
2019-03-20T08:45:22.203Z,10.70
2019-03-20T08:50:26.329Z,13.10
2019-03-20T08:55:29.614Z,15.00
2019-03-20T09:00:33.313Z,16.00
2019-03-20T09:05:38.003Z,17.00
2019-03-20T09:10:41.384Z,17.70
2019-03-20T09:15:46.803Z,17.90
2019-03-20T09:20:51.106Z,18.40
2019-03-20T09:25:54.547Z,18.70
2019-03-20T09:30:57.858Z,19.30
2019-03-20T09:36:01.908Z,19.80
2019-03-20T09:41:05.443Z,19.80
2019-03-20T09:46:08.874Z,20.00
2019-03-20T09:51:12.181Z,23.10
2019-03-20T09:56:16.956Z,26.40
2019-03-20T10:01:20.599Z,30.70
2019-03-20T10:06:23.992Z,31.10
2019-03-20T10:11:27.366Z,32.00
2019-03-20T10:16:31.464Z,29.60
2019-03-20T10:21:34.960Z,30.30
2019-03-20T10:26:38.373Z,25.20
2019-03-20T10:31:43.751Z,22.00
2019-03-20T10:36:47.135Z,18.70
2019-03-20T10:41:50.452Z,16.20
2019-03-20T10:46:54.392Z,15.70
2019-03-20T10:52:00.069Z,19.10
2019-03-20T10:57:03.440Z,20.10
2019-03-20T11:02:06.728Z,17.70
2019-03-20T11:07:10.122Z,16.50
2019-03-20T11:12:13.522Z,16.60
2019-03-20T11:17:18.618Z,15.60
2019-03-20T11:22:23.567Z,16.00
2019-03-20T11:27:52.190Z,15.10
2019-03-20T11:32:56.710Z,14.50
2019-03-20T11:38:02.690Z,20.00
2019-03-20T11:43:06.916Z,22.90
2019-03-20T11:48:10.313Z,28.40
2019-03-20T11:53:13.730Z,26.90
2019-03-20T11:58:17.616Z,21.60
2019-03-20T12:03:21.889Z,25.80
2019-03-20T12:08:26.075Z,32.30
2019-03-20T12:13:30.356Z,35.60
2019-03-20T12:18:33.649Z,36.60
2019-03-20T12:23:36.947Z,36.50
2019-03-20T12:28:40.368Z,36.30
2019-03-20T12:33:44.516Z,32.00
2019-03-20T12:38:47.872Z,31.40
2019-03-20T12:43:51.214Z,31.70
2019-03-20T12:48:54.515Z,32.10
2019-03-20T12:53:57.856Z,32.90
2019-03-20T12:59:02.812Z,34.80
2019-03-20T13:04:06.193Z,36.40
2019-03-20T13:09:09.507Z,36.00
2019-03-20T13:14:13.749Z,36.80
2019-03-20T13:19:17.173Z,36.10
2019-03-20T13:24:22.841Z,32.70
2019-03-20T13:29:26.147Z,25.70
2019-03-20T13:34:29.649Z,26.20
2019-03-20T13:39:32.965Z,27.10
2019-03-20T13:44:37.461Z,23.10
2019-03-20T13:49:40.769Z,20.00
2019-03-20T13:54:44.249Z,17.70
2019-03-20T13:59:48.053Z,16.00
2019-03-20T14:04:52.590Z,15.00
2019-03-20T14:09:55.916Z,14.40
2019-03-20T14:15:02.711Z,13.80
2019-03-20T14:20:14.924Z,13.40
2019-03-20T14:25:20.613Z,13.10
2019-03-20T14:30:31.061Z,13.00
2019-03-20T14:35:34.459Z,12.80
2019-03-20T14:40:38.341Z,12.40
2019-03-20T14:45:42.553Z,12.20
2019-03-20T14:50:47.189Z,12.00
2019-03-20T14:55:50.613Z,11.90
2019-03-20T15:00:54.274Z,11.70
2019-03-20T15:05:57.636Z,11.60
2019-03-20T15:11:00.994Z,11.40
2019-03-20T15:16:08.844Z,11.20
2019-03-20T15:21:12.240Z,11.10
2019-03-20T15:26:16.426Z,11.00
2019-03-20T15:31:19.864Z,10.90
2019-03-20T15:36:24.713Z,10.80
2019-03-20T15:41:28.389Z,10.70
2019-03-20T15:46:31.697Z,10.60
2019-03-20T15:51:36.868Z,10.40
2019-03-20T15:56:40.305Z,10.30
2019-03-20T16:01:44.192Z,10.20
2019-03-20T16:06:48.051Z,10.10
2019-03-20T16:11:52.941Z,9.90
2019-03-20T16:16:58.114Z,9.80
2019-03-20T16:22:03.183Z,9.70
2019-03-20T16:27:17.818Z,9.50
2019-03-20T16:32:21.931Z,9.40
2019-03-20T16:37:25.692Z,9.30
2019-03-20T16:42:44.548Z,9.10
2019-03-20T16:47:48.379Z,9.00
2019-03-20T16:52:52.648Z,8.90
2019-03-20T16:57:58.428Z,8.70
2019-03-20T17:03:03.874Z,8.60
2019-03-20T17:08:08.128Z,8.50
2019-03-20T17:13:11.436Z,8.50
2019-03-20T17:18:15.852Z,8.50
2019-03-20T17:23:20.941Z,8.40
2019-03-20T17:28:25.674Z,8.40
2019-03-20T17:33:29.942Z,8.40
2019-03-20T17:38:33.800Z,8.40
2019-03-20T17:43:41.216Z,8.40
2019-03-20T17:48:47.050Z,8.40
2019-03-20T17:53:50.458Z,8.40
2019-03-20T17:58:55.287Z,8.30
2019-03-20T18:03:58.708Z,8.20
2019-03-20T18:09:02.015Z,8.10
2019-03-20T18:14:05.439Z,8.00
2019-03-20T18:19:12.088Z,8.00
2019-03-20T18:24:15.454Z,8.00
2019-03-20T18:29:19.601Z,8.00
2019-03-20T18:34:23.483Z,8.00
2019-03-20T18:39:27.349Z,8.00
2019-03-20T18:44:30.700Z,8.00
2019-03-20T18:49:34.070Z,8.10
2019-03-20T18:54:37.561Z,8.00
2019-03-20T18:59:41.987Z,8.00
2019-03-20T19:04:46.369Z,7.90
2019-03-20T19:09:53.667Z,7.80
2019-03-20T19:14:57.264Z,7.70
2019-03-20T19:20:01.534Z,7.50
2019-03-20T19:25:14.860Z,7.40
2019-03-20T19:30:21.519Z,7.40
2019-03-20T19:35:25.771Z,7.30
2019-03-20T19:40:34.668Z,7.20
2019-03-20T19:45:38.029Z,7.20
2019-03-20T19:50:41.590Z,7.20
2019-03-20T19:55:45.481Z,7.20
2019-03-20T20:00:51.324Z,7.20
2019-03-20T20:05:56.355Z,7.10
2019-03-20T20:10:59.737Z,7.20
2019-03-20T20:16:03.131Z,7.20
2019-03-20T20:21:07.217Z,7.20
2019-03-20T20:26:13.302Z,7.20
2019-03-20T20:31:16.907Z,7.20
2019-03-20T20:36:21.715Z,7.20
2019-03-20T20:41:25.306Z,7.30
2019-03-20T20:46:28.733Z,7.30
2019-03-20T20:51:32.156Z,7.30
2019-03-20T20:56:37.265Z,7.40
2019-03-20T21:01:41.578Z,7.40
2019-03-20T21:06:47.590Z,7.50
2019-03-20T21:11:52.763Z,7.50
2019-03-20T21:16:57.960Z,7.50
2019-03-20T21:22:17.066Z,7.50
2019-03-20T21:27:42.700Z,7.60
2019-03-20T21:32:52.750Z,7.70
2019-03-20T21:38:07.683Z,7.70
2019-03-20T21:43:49.802Z,7.70
2019-03-20T21:48:53.206Z,7.80
2019-03-20T21:54:14.708Z,7.80
2019-03-20T21:59:42.053Z,7.90
2019-03-20T22:04:46.451Z,8.00
2019-03-20T22:09:56.020Z,8.00
2019-03-20T22:15:06.397Z,8.10
2019-03-20T22:20:22.164Z,8.10
2019-03-20T22:25:51.298Z,8.10
2019-03-20T22:30:54.783Z,8.20
2019-03-20T22:35:59.912Z,8.20
2019-03-20T22:41:15.488Z,8.20
2019-03-20T22:46:57.252Z,8.30
2019-03-20T22:52:10.224Z,8.20
2019-03-20T22:57:35.021Z,8.20
2019-03-20T23:02:56.858Z,8.20
2019-03-20T23:08:00.835Z,8.30
2019-03-20T23:13:04.574Z,8.30
2019-03-20T23:18:08.093Z,8.30
2019-03-20T23:23:11.584Z,8.30
2019-03-20T23:28:15.097Z,8.40
2019-03-20T23:33:18.475Z,8.40
2019-03-20T23:38:22.403Z,8.40
2019-03-20T23:43:25.710Z,8.40
2019-03-20T23:48:35.681Z,8.50
2019-03-20T23:53:42.676Z,8.50
2019-03-20T23:58:46.617Z,8.50
